Time;durP1;ratioP1;P1;durP2;ratioP2;P2;SDS_P1;SDS_P2;PMS_P1;PMS_P2;Temp;Humidity;BMP_temperature;BMP_pressure;BME280_temperature;BME280_humidity;BME280_pressure;Samples;Min_cycle;Max_cycle;Signal;HPM_P1;HPM_P2
2021/09/18 00:01:34;;;;;;;4.95;2.63;;;12.80;99.90;;;;;;5057796;28;20052;-55
2021/09/18 00:04:01;;;;;;;6.25;2.63;;;12.80;99.90;;;;;;5053001;28;20049;-55
2021/09/18 00:06:30;;;;;;;7.80;2.78;;;12.90;99.90;;;;;;5053805;28;20064;-57
2021/09/18 00:08:56;;;;;;;5.72;2.92;;;13.00;99.90;;;;;;5053232;28;20084;-56
2021/09/18 00:11:22;;;;;;;6.35;3.03;;;13.00;99.90;;;;;;5058793;28;20076;-51
2021/09/18 00:13:49;;;;;;;5.57;2.80;;;13.10;99.90;;;;;;5065388;28;20063;-56
2021/09/18 00:16:15;;;;;;;4.35;2.50;;;13.10;99.90;;;;;;5061048;28;20076;-54
2021/09/18 00:18:41;;;;;;;3.83;2.50;;;13.20;99.90;;;;;;5052581;28;20425;-54
2021/09/18 00:21:09;;;;;;;6.07;3.00;;;13.30;99.90;;;;;;5049289;28;20049;-54
2021/09/18 00:23:38;;;;;;;3.85;2.22;;;13.30;99.90;;;;;;5048807;28;20067;-53
2021/09/18 00:26:04;;;;;;;5.43;2.50;;;13.30;99.90;;;;;;5056358;28;20660;-58
2021/09/18 00:28:30;;;;;;;5.60;2.60;;;13.30;99.90;;;;;;5056091;28;20057;-53
2021/09/18 00:30:56;;;;;;;5.10;2.60;;;13.30;99.90;;;;;;5057895;28;20516;-53
2021/09/18 00:33:22;;;;;;;8.13;2.90;;;13.40;99.90;;;;;;5051714;28;20049;-59
2021/09/18 00:35:51;;;;;;;6.05;2.90;;;13.50;99.90;;;;;;5051943;28;20458;-58
2021/09/18 00:38:17;;;;;;;3.90;2.95;;;13.50;99.90;;;;;;5054853;28;20053;-53
2021/09/18 00:40:46;;;;;;;6.25;2.60;;;13.50;99.90;;;;;;5058682;28;20485;-54
2021/09/18 00:43:15;;;;;;;6.28;2.95;;;13.50;99.90;;;;;;5055662;28;20052;-53
2021/09/18 00:45:44;;;;;;;3.95;2.88;;;13.60;99.90;;;;;;5064285;28;20060;-53
2021/09/18 00:48:10;;;;;;;5.10;3.20;;;13.60;99.90;;;;;;5054715;28;20284;-55
2021/09/18 00:50:40;;;;;;;3.92;2.75;;;13.60;99.90;;;;;;5051010;28;20564;-54
2021/09/18 00:53:06;;;;;;;4.95;2.80;;;13.60;99.90;;;;;;5055158;28;20174;-56
2021/09/18 00:55:35;;;;;;;5.13;2.85;;;13.60;99.90;;;;;;5053909;28;20057;-54
2021/09/18 00:58:01;;;;;;;4.68;2.78;;;13.70;99.90;;;;;;5055155;28;20496;-53
2021/09/18 01:00:27;;;;;;;5.50;2.70;;;13.70;99.90;;;;;;5058123;28;20386;-56
2021/09/18 01:02:55;;;;;;;5.18;2.72;;;13.70;99.90;;;;;;5059384;28;20048;-55
2021/09/18 01:05:21;;;;;;;5.63;2.22;;;13.80;99.90;;;;;;5060218;28;20123;-57
2021/09/18 01:07:48;;;;;;;4.72;2.00;;;13.80;99.90;;;;;;5088131;28;20057;-55
2021/09/18 01:10:14;;;;;;;6.47;2.58;;;13.80;99.90;;;;;;5058444;28;20052;-56
2021/09/18 01:13:00;;;;;;;3.78;2.35;;;13.80;99.90;;;;;;5057084;28;20786;-58
2021/09/18 01:15:27;;;;;;;4.35;2.28;;;13.80;99.90;;;;;;5069386;28;20140;-55
2021/09/18 01:17:55;;;;;;;4.65;2.00;;;13.80;99.90;;;;;;5062469;28;20121;-55
2021/09/18 01:20:22;;;;;;;4.63;2.90;;;13.70;99.90;;;;;;5062120;28;20127;-55
2021/09/18 01:22:48;;;;;;;3.80;2.65;;;13.70;99.90;;;;;;5058897;28;20155;-58
2021/09/18 01:25:15;;;;;;;3.72;2.22;;;13.70;99.90;;;;;;5056208;28;20552;-55
2021/09/18 01:27:47;;;;;;;4.10;2.40;;;13.60;99.90;;;;;;5058487;28;20051;-57
2021/09/18 01:30:27;;;;;;;6.15;2.95;;;13.60;99.90;;;;;;5061786;28;20522;-58
2021/09/18 01:32:58;;;;;;;5.20;2.90;;;13.50;99.90;;;;;;5048612;28;20057;-56
2021/09/18 01:35:25;;;;;;;4.90;3.03;;;13.50;99.90;;;;;;5067918;28;20476;-57
2021/09/18 01:37:52;;;;;;;4.60;2.85;;;13.40;99.90;;;;;;5068781;28;20060;-56
2021/09/18 01:40:27;;;;;;;6.50;2.95;;;13.30;99.90;;;;;;5068411;28;20052;-57
2021/09/18 01:42:54;;;;;;;5.32;3.45;;;13.30;99.90;;;;;;5068072;28;20051;-54
2021/09/18 01:45:20;;;;;;;5.47;3.28;;;13.20;99.90;;;;;;5068578;28;20110;-58
2021/09/18 01:47:49;;;;;;;5.60;3.67;;;13.20;99.90;;;;;;5067758;28;20044;-56
2021/09/18 01:50:25;;;;;;;5.78;3.50;;;13.10;99.90;;;;;;5069044;28;20127;-56
2021/09/18 01:52:53;;;;;;;7.63;3.47;;;13.10;99.90;;;;;;5066220;28;20051;-54
2021/09/18 01:55:20;;;;;;;5.57;3.05;;;13.00;99.90;;;;;;5064471;28;20060;-56
2021/09/18 01:57:49;;;;;;;6.85;3.60;;;12.90;99.90;;;;;;5068034;28;20539;-53
2021/09/18 02:00:16;;;;;;;6.68;3.40;;;12.90;99.90;;;;;;5067474;28;20618;-59
2021/09/18 02:02:42;;;;;;;7.80;4.30;;;12.80;99.90;;;;;;5065319;28;20536;-54
2021/09/18 02:05:10;;;;;;;5.65;3.38;;;12.80;99.90;;;;;;5068365;28;20398;-55
2021/09/18 02:07:36;;;;;;;5.78;3.53;;;12.70;99.90;;;;;;5064005;28;20161;-57
2021/09/18 02:10:09;;;;;;;5.72;3.15;;;12.70;99.90;;;;;;5067317;28;20082;-57
2021/09/18 02:12:35;;;;;;;4.68;3.33;;;12.60;99.90;;;;;;5068035;28;20056;-55
2021/09/18 02:15:02;;;;;;;5.32;3.28;;;12.60;99.90;;;;;;5067392;28;20052;-56
2021/09/18 02:17:28;;;;;;;8.40;4.15;;;12.50;99.90;;;;;;5066161;28;20052;-57
2021/09/18 02:19:55;;;;;;;6.10;3.33;;;12.50;99.90;;;;;;5063871;28;20045;-57
2021/09/18 02:22:21;;;;;;;4.32;3.25;;;12.40;99.90;;;;;;5066959;28;20052;-54
2021/09/18 02:24:47;;;;;;;5.78;3.40;;;12.40;99.90;;;;;;5067512;28;20063;-55
2021/09/18 02:27:13;;;;;;;6.53;3.95;;;12.30;99.90;;;;;;5067920;28;20054;-54
2021/09/18 02:29:39;;;;;;;5.90;3.33;;;12.30;99.90;;;;;;5067622;28;20060;-55
2021/09/18 02:32:05;;;;;;;6.75;3.65;;;12.30;99.90;;;;;;5066882;28;20041;-57
2021/09/18 02:34:34;;;;;;;6.50;3.67;;;12.20;99.90;;;;;;5068037;28;20045;-53
2021/09/18 02:37:03;;;;;;;7.60;2.90;;;12.20;99.90;;;;;;5068496;28;20106;-55
2021/09/18 02:39:29;;;;;;;6.43;3.40;;;12.20;99.90;;;;;;5067846;28;20052;-57
2021/09/18 02:41:58;;;;;;;4.45;3.40;;;12.20;99.90;;;;;;5067913;28;20583;-55
2021/09/18 02:44:24;;;;;;;6.72;4.85;;;12.20;99.90;;;;;;5066044;28;20048;-58
2021/09/18 02:46:53;;;;;;;4.55;3.28;;;12.30;99.90;;;;;;5066868;28;20041;-61
2021/09/18 02:49:19;;;;;;;7.03;4.18;;;12.30;99.90;;;;;;5067760;28;20462;-55
2021/09/18 02:51:45;;;;;;;5.60;3.38;;;12.30;99.90;;;;;;5067159;28;20123;-58
2021/09/18 02:54:12;;;;;;;5.35;3.53;;;12.40;99.90;;;;;;5065356;28;20051;-54
2021/09/18 02:56:42;;;;;;;5.07;3.40;;;12.40;99.90;;;;;;5065474;28;20057;-60
2021/09/18 02:59:09;;;;;;;6.07;3.90;;;12.40;99.90;;;;;;5048458;28;20068;-53
2021/09/18 03:01:36;;;;;;;5.03;3.30;;;12.30;99.90;;;;;;5066566;28;20231;-56
2021/09/18 03:04:04;;;;;;;5.00;3.38;;;12.20;99.90;;;;;;5066789;28;20048;-55
2021/09/18 03:06:33;;;;;;;8.35;4.13;;;12.20;99.90;;;;;;5066154;28;20412;-53
2021/09/18 03:08:59;;;;;;;5.20;3.90;;;12.20;99.90;;;;;;5066315;28;20067;-57
2021/09/18 03:11:25;;;;;;;5.57;4.05;;;12.10;99.90;;;;;;5063862;28;20067;-58
2021/09/18 03:13:51;;;;;;;6.18;4.43;;;12.10;99.90;;;;;;5067247;28;20063;-57
2021/09/18 03:16:20;;;;;;;6.40;4.32;;;12.10;99.90;;;;;;5067675;28;20578;-51
2021/09/18 03:18:46;;;;;;;6.85;4.88;;;12.10;99.90;;;;;;5066327;28;20055;-58
2021/09/18 03:21:15;;;;;;;6.93;4.80;;;12.00;99.90;;;;;;5066763;28;20485;-55
2021/09/18 03:23:41;;;;;;;9.95;4.47;;;12.00;99.90;;;;;;5065642;28;20509;-59
2021/09/18 03:26:10;;;;;;;5.45;3.88;;;12.00;99.90;;;;;;5095734;28;20397;-57
2021/09/18 03:28:39;;;;;;;6.47;4.40;;;11.90;99.90;;;;;;5064045;28;20088;-58
2021/09/18 03:31:05;;;;;;;5.63;4.20;;;11.90;99.90;;;;;;5067271;28;20087;-56
2021/09/18 03:33:31;;;;;;;7.22;4.75;;;11.90;99.90;;;;;;5064592;28;20052;-60
2021/09/18 03:36:00;;;;;;;7.32;4.63;;;11.80;99.90;;;;;;5065814;28;20049;-58
2021/09/18 03:38:28;;;;;;;6.07;5.10;;;11.80;99.90;;;;;;5064536;28;20135;-58
2021/09/18 03:40:54;;;;;;;7.22;4.90;;;11.80;99.90;;;;;;5066321;28;20083;-57
2021/09/18 03:43:21;;;;;;;6.10;4.78;;;11.80;99.90;;;;;;5066290;28;20836;-51
2021/09/18 03:45:47;;;;;;;6.43;4.70;;;11.80;99.90;;;;;;5067176;28;20054;-57
2021/09/18 03:48:16;;;;;;;7.32;5.18;;;11.70;99.90;;;;;;5066003;28;20217;-54
2021/09/18 03:50:42;;;;;;;8.88;5.63;;;11.70;99.90;;;;;;5063216;28;20057;-54
2021/09/18 03:53:08;;;;;;;8.13;5.35;;;11.60;99.90;;;;;;5065305;28;20048;-58
2021/09/18 03:55:36;;;;;;;7.55;5.60;;;11.60;99.90;;;;;;5065576;28;20088;-58
2021/09/18 03:58:02;;;;;;;8.60;5.43;;;11.60;99.90;;;;;;5066090;28;20403;-56
2021/09/18 04:00:31;;;;;;;9.45;5.35;;;11.60;99.90;;;;;;5064148;28;20072;-56
2021/09/18 04:02:57;;;;;;;7.88;5.60;;;11.50;99.90;;;;;;5065104;28;20451;-56
2021/09/18 04:05:26;;;;;;;7.60;5.18;;;11.60;99.90;;;;;;5063571;28;20489;-58
2021/09/18 04:07:52;;;;;;;9.60;5.35;;;11.50;99.90;;;;;;5064814;28;20048;-61
2021/09/18 04:10:20;;;;;;;6.50;5.25;;;11.50;99.90;;;;;;5064694;28;20052;-57
2021/09/18 04:12:46;;;;;;;8.23;5.90;;;11.50;99.90;;;;;;5065308;28;20523;-57
2021/09/18 04:15:15;;;;;;;8.27;6.10;;;11.50;99.90;;;;;;5066329;28;20064;-57
2021/09/18 04:17:43;;;;;;;9.45;6.18;;;11.50;99.90;;;;;;5066139;28;20056;-56
2021/09/18 04:20:14;;;;;;;6.85;5.57;;;11.40;99.90;;;;;;5065467;28;20074;-58
2021/09/18 04:22:40;;;;;;;6.72;5.50;;;11.40;99.90;;;;;;5064926;28;20095;-58
2021/09/18 04:25:07;;;;;;;7.10;5.80;;;11.40;99.90;;;;;;5064054;28;20568;-57
2021/09/18 04:27:35;;;;;;;8.70;6.00;;;11.40;99.90;;;;;;5064350;28;20888;-53
2021/09/18 04:30:02;;;;;;;8.45;6.03;;;11.40;99.90;;;;;;5058324;28;20471;-54
2021/09/18 04:32:28;;;;;;;6.95;6.22;;;11.30;99.90;;;;;;5060215;28;20052;-54
2021/09/18 04:34:54;;;;;;;8.23;6.18;;;11.30;99.90;;;;;;5056445;28;20060;-53
2021/09/18 04:37:20;;;;;;;7.18;5.78;;;11.30;99.90;;;;;;5051436;28;20665;-59
2021/09/18 04:39:49;;;;;;;7.78;5.53;;;11.30;99.90;;;;;;5056885;28;20092;-56
2021/09/18 04:42:16;;;;;;;7.50;5.85;;;11.20;99.90;;;;;;5060386;28;20123;-58
2021/09/18 04:44:42;;;;;;;8.70;6.13;;;11.20;99.90;;;;;;5070224;28;20079;-59
2021/09/18 04:47:10;;;;;;;8.13;6.10;;;11.10;99.90;;;;;;5050886;28;20143;-58
2021/09/18 04:49:39;;;;;;;7.57;5.50;;;11.10;99.90;;;;;;5067108;28;20186;-58
2021/09/18 04:52:07;;;;;;;6.28;5.32;;;11.10;99.90;;;;;;5076186;28;21773;-58
2021/09/18 04:54:33;;;;;;;6.45;5.50;;;11.00;99.90;;;;;;5059387;28;20179;-59
2021/09/18 04:56:59;;;;;;;6.03;5.32;;;11.10;99.90;;;;;;5061264;28;20132;-56
2021/09/18 04:59:26;;;;;;;8.68;6.07;;;11.00;99.90;;;;;;5057327;28;20500;-55
2021/09/18 05:01:54;;;;;;;7.40;5.85;;;11.00;99.90;;;;;;5062660;28;20063;-58
2021/09/18 05:04:22;;;;;;;8.38;6.20;;;11.00;99.90;;;;;;5055329;28;20053;-59
2021/09/18 05:06:49;;;;;;;8.57;5.93;;;10.90;99.90;;;;;;5051171;28;20049;-58
2021/09/18 05:09:15;;;;;;;7.43;6.45;;;10.90;99.90;;;;;;5058744;28;20053;-56
2021/09/18 05:11:44;;;;;;;8.02;6.32;;;10.90;99.90;;;;;;5050596;28;20073;-57
2021/09/18 05:14:13;;;;;;;7.53;5.93;;;11.00;99.90;;;;;;5056058;28;20398;-59
2021/09/18 05:16:41;;;;;;;9.10;6.47;;;10.90;99.90;;;;;;5068219;28;20053;-58
2021/09/18 05:19:07;;;;;;;8.85;6.68;;;10.90;99.90;;;;;;5053699;28;20132;-58
2021/09/18 05:21:39;;;;;;;7.50;6.70;;;10.90;99.90;;;;;;5056368;28;20072;-54
2021/09/18 05:24:06;;;;;;;8.73;6.88;;;10.90;99.90;;;;;;5059260;28;20064;-58
2021/09/18 05:26:32;;;;;;;8.30;6.40;;;10.90;99.90;;;;;;5060491;28;20056;-58
2021/09/18 05:28:58;;;;;;;8.02;6.80;;;10.90;99.90;;;;;;5062067;28;20072;-58
2021/09/18 05:31:24;;;;;;;8.40;6.55;;;10.90;99.90;;;;;;5059659;28;20045;-55
2021/09/18 05:33:55;;;;;;;9.90;7.22;;;11.00;99.90;;;;;;5067818;28;20055;-56
2021/09/18 05:36:22;;;;;;;8.20;6.57;;;11.00;99.90;;;;;;5068339;28;20049;-54
2021/09/18 05:38:48;;;;;;;8.57;6.35;;;11.00;99.90;;;;;;5069369;28;20568;-55
2021/09/18 05:41:17;;;;;;;7.75;6.25;;;11.00;99.90;;;;;;5067385;28;20067;-58
2021/09/18 05:43:43;;;;;;;10.48;7.20;;;11.00;99.90;;;;;;5069177;28;20059;-57
2021/09/18 05:46:09;;;;;;;10.60;6.70;;;11.10;99.90;;;;;;5069621;28;20083;-57
2021/09/18 05:48:38;;;;;;;8.45;6.88;;;11.10;99.90;;;;;;5069600;28;20049;-58
2021/09/18 05:51:05;;;;;;;8.57;6.50;;;11.10;99.90;;;;;;5068095;28;20074;-60
2021/09/18 05:53:31;;;;;;;7.72;6.93;;;11.10;99.90;;;;;;5067502;28;20062;-56
2021/09/18 05:55:57;;;;;;;8.05;6.50;;;11.20;99.90;;;;;;5068819;28;20071;-58
2021/09/18 05:58:23;;;;;;;10.32;6.50;;;11.20;99.90;;;;;;5067710;28;20105;-55
2021/09/18 06:00:49;;;;;;;9.18;7.32;;;11.20;99.90;;;;;;5068550;28;20048;-59
2021/09/18 06:03:18;;;;;;;8.18;6.45;;;11.30;99.90;;;;;;5068186;28;20059;-57
2021/09/18 06:05:50;;;;;;;10.23;7.97;;;11.30;99.90;;;;;;5065927;28;20072;-57
2021/09/18 06:08:18;;;;;;;8.88;7.18;;;11.30;99.90;;;;;;5063086;28;20080;-53
2021/09/18 06:10:48;;;;;;;8.15;6.78;;;11.40;99.90;;;;;;5060805;28;20066;-61
2021/09/18 06:13:14;;;;;;;7.53;6.82;;;11.50;99.90;;;;;;5053658;28;20131;-61
2021/09/18 06:15:40;;;;;;;7.95;6.93;;;11.60;99.90;;;;;;5060495;28;20497;-60
2021/09/18 06:18:06;;;;;;;7.25;6.28;;;11.70;99.90;;;;;;5040150;28;20143;-60
2021/09/18 06:20:36;;;;;;;11.32;6.90;;;11.80;99.90;;;;;;5057496;28;20063;-61
2021/09/18 06:23:02;;;;;;;10.02;7.13;;;11.80;99.90;;;;;;5056942;28;20060;-61
2021/09/18 06:25:28;;;;;;;9.07;7.55;;;11.90;99.90;;;;;;5061267;28;20790;-61
2021/09/18 06:27:54;;;;;;;61.85;54.83;;;11.90;99.90;;;;;;5059915;28;20084;-60
2021/09/18 06:30:23;;;;;;;12.18;10.73;;;12.00;99.90;;;;;;5055761;28;20052;-61
2021/09/18 06:32:49;;;;;;;10.60;8.63;;;12.20;99.90;;;;;;5060065;28;20049;-61
2021/09/18 06:35:15;;;;;;;16.33;14.55;;;12.30;99.90;;;;;;5051546;28;20053;-60
2021/09/18 06:37:47;;;;;;;12.65;7.72;;;12.40;99.90;;;;;;5044960;28;20084;-60
2021/09/18 06:40:19;;;;;;;9.65;7.47;;;12.60;99.90;;;;;;5057566;28;20132;-61
2021/09/18 06:42:48;;;;;;;11.40;7.75;;;12.70;99.90;;;;;;5051597;28;20049;-61
2021/09/18 06:45:15;;;;;;;8.82;6.72;;;13.00;99.90;;;;;;5053471;28;20092;-61
2021/09/18 06:47:43;;;;;;;9.60;8.60;;;13.30;99.90;;;;;;5037989;28;20159;-61
2021/09/18 06:50:10;;;;;;;8.93;8.00;;;13.60;99.90;;;;;;5041997;28;20485;-62
2021/09/18 06:52:39;;;;;;;14.05;12.43;;;13.90;99.90;;;;;;5055595;28;20416;-65
2021/09/18 06:55:06;;;;;;;16.15;14.05;;;14.10;99.90;;;;;;5054732;28;20045;-62
2021/09/18 06:57:35;;;;;;;48.95;43.58;;;14.20;99.90;;;;;;5053761;28;20048;-62
2021/09/18 07:00:05;;;;;;;20.13;16.30;;;14.30;99.90;;;;;;5063898;28;20505;-62
2021/09/18 07:02:31;;;;;;;8.55;7.32;;;14.40;99.90;;;;;;5059460;28;20482;-61
2021/09/18 07:05:00;;;;;;;12.82;10.35;;;14.50;99.90;;;;;;5057299;28;20052;-62
2021/09/18 07:07:29;;;;;;;9.00;6.75;;;14.40;99.90;;;;;;5047408;28;20080;-61
2021/09/18 07:09:57;;;;;;;8.77;5.25;;;14.50;99.90;;;;;;5055674;28;20456;-61
2021/09/18 07:12:23;;;;;;;6.57;4.35;;;14.50;99.90;;;;;;5051355;28;20527;-61
2021/09/18 07:14:49;;;;;;;8.77;4.75;;;14.60;99.90;;;;;;5054447;28;20048;-62
2021/09/18 07:17:18;;;;;;;5.88;4.90;;;14.60;99.90;;;;;;5085241;28;20136;-61
2021/09/18 07:19:46;;;;;;;6.65;5.57;;;14.60;99.90;;;;;;5056089;28;20056;-61
2021/09/18 07:22:12;;;;;;;8.27;4.40;;;14.60;99.90;;;;;;5055260;28;20136;-61
2021/09/18 07:24:38;;;;;;;6.63;5.47;;;14.60;99.90;;;;;;5052290;28;20092;-62
2021/09/18 07:27:05;;;;;;;20.20;15.70;;;14.70;99.90;;;;;;5055472;28;20420;-61
2021/09/18 07:29:31;;;;;;;78.35;69.93;;;14.80;99.90;;;;;;5059923;28;20113;-61
2021/09/18 07:31:57;;;;;;;9.02;5.95;;;14.90;99.90;;;;;;5060430;28;20080;-62
2021/09/18 07:34:26;;;;;;;12.57;10.15;;;14.90;99.90;;;;;;5023098;28;20056;-61
2021/09/18 07:36:54;;;;;;;15.25;12.63;;;14.90;99.90;;;;;;5061414;28;20083;-61
2021/09/18 07:39:20;;;;;;;10.95;8.55;;;15.10;99.90;;;;;;5058401;28;20052;-61
2021/09/18 07:41:47;;;;;;;19.65;15.00;;;15.20;99.90;;;;;;5062367;28;20060;-61
2021/09/18 07:44:13;;;;;;;35.70;31.90;;;15.30;99.90;;;;;;5056424;28;20064;-61
2021/09/18 07:46:39;;;;;;;23.45;19.27;;;15.40;99.90;;;;;;5058257;28;20052;-62
2021/09/18 07:49:07;;;;;;;7.43;2.92;;;15.50;99.90;;;;;;5039789;28;20192;-59
2021/09/18 07:51:36;;;;;;;7.70;2.60;;;15.60;99.90;;;;;;5064955;28;20526;-61
2021/09/18 07:54:02;;;;;;;60.75;54.40;;;15.80;99.90;;;;;;5059802;28;20114;-62
2021/09/18 07:56:31;;;;;;;10.93;9.45;;;16.00;99.90;;;;;;5062345;28;20075;-61
2021/09/18 07:58:57;;;;;;;11.57;7.07;;;16.10;99.90;;;;;;5058547;28;20079;-61
2021/09/18 08:01:27;;;;;;;20.25;17.08;;;16.30;99.90;;;;;;5058682;28;20501;-61
2021/09/18 08:03:58;;;;;;;44.75;40.05;;;16.40;99.90;;;;;;5060730;28;20056;-61
2021/09/18 08:06:25;;;;;;;4.28;2.03;;;16.50;99.90;;;;;;5058268;28;20083;-61
2021/09/18 08:08:55;;;;;;;7.40;3.50;;;16.50;99.90;;;;;;5061656;28;20048;-61
2021/09/18 08:11:22;;;;;;;5.22;2.42;;;16.70;99.90;;;;;;5061949;28;20408;-61
2021/09/18 08:13:49;;;;;;;4.00;1.98;;;16.70;99.90;;;;;;5058369;28;20124;-61
2021/09/18 08:16:16;;;;;;;3.65;1.70;;;17.00;99.90;;;;;;5051856;28;20081;-61
2021/09/18 08:18:45;;;;;;;5.85;2.30;;;17.00;99.90;;;;;;5051835;28;20459;-62
2021/09/18 08:21:12;;;;;;;5.63;2.47;;;17.20;99.90;;;;;;5053220;28;20476;-63
2021/09/18 08:23:40;;;;;;;41.67;36.63;;;17.30;99.90;;;;;;5055411;28;20110;-61
2021/09/18 08:26:08;;;;;;;7.40;1.85;;;17.40;99.90;;;;;;5052393;28;20148;-60
2021/09/18 08:28:34;;;;;;;13.13;9.38;;;17.60;99.90;;;;;;5052630;28;20572;-62
2021/09/18 08:31:01;;;;;;;21.38;17.23;;;17.70;99.90;;;;;;5049708;28;20413;-61
2021/09/18 08:33:27;;;;;;;3.70;1.40;;;18.00;99.90;;;;;;5049757;28;20084;-61
2021/09/18 08:35:54;;;;;;;6.35;4.40;;;18.10;99.90;;;;;;5056042;28;20056;-61
2021/09/18 08:38:22;;;;;;;5.47;2.00;;;18.20;99.90;;;;;;5057582;28;20044;-62
2021/09/18 08:40:50;;;;;;;7.13;4.30;;;18.20;99.90;;;;;;5053254;28;20155;-66
2021/09/18 08:43:18;;;;;;;2.53;1.10;;;18.10;99.90;;;;;;5051094;28;20053;-60
2021/09/18 08:45:45;;;;;;;6.03;2.53;;;18.10;99.90;;;;;;5085431;28;20052;-65
2021/09/18 08:48:13;;;;;;;11.55;9.02;;;17.90;99.90;;;;;;5071901;28;20040;-61
2021/09/18 08:50:39;;;;;;;5.88;3.80;;;18.00;99.90;;;;;;5054738;28;20421;-61
2021/09/18 08:53:05;;;;;;;6.82;2.47;;;18.00;99.90;;;;;;5057192;28;20057;-61
2021/09/18 08:55:35;;;;;;;5.00;2.78;;;18.00;99.90;;;;;;5049516;28;20110;-61
2021/09/18 08:58:02;;;;;;;3.30;0.90;;;18.10;99.90;;;;;;5054039;28;20060;-61
2021/09/18 09:00:31;;;;;;;6.28;4.75;;;18.10;99.90;;;;;;5086446;28;20489;-62
2021/09/18 09:03:06;;;;;;;3.25;1.20;;;18.30;99.90;;;;;;5050726;28;20049;-61
2021/09/18 09:05:36;;;;;;;2.17;0.80;;;18.40;99.90;;;;;;5052432;28;20056;-62
2021/09/18 09:08:21;;;;;;;1.80;0.98;;;18.50;99.90;;;;;;5053381;28;20072;-62
2021/09/18 09:10:50;;;;;;;3.55;1.20;;;18.50;99.90;;;;;;5057421;28;20404;-62
2021/09/18 09:13:20;;;;;;;1.85;1.15;;;18.40;99.90;;;;;;5057095;28;20057;-63
2021/09/18 09:15:50;;;;;;;4.78;1.85;;;18.50;99.90;;;;;;5052265;28;20045;-60
2021/09/18 09:18:17;;;;;;;26.02;21.65;;;18.50;99.90;;;;;;5055176;28;20581;-62
2021/09/18 09:20:43;;;;;;;10.93;9.77;;;18.60;99.90;;;;;;5056492;28;20068;-63
2021/09/18 09:23:21;;;;;;;11.55;9.90;;;18.60;99.90;;;;;;5058919;28;20080;-61
2021/09/18 09:25:53;;;;;;;5.40;2.85;;;18.70;99.90;;;;;;5063328;28;20055;-62
2021/09/18 09:28:31;;;;;;;4.60;1.60;;;18.80;99.90;;;;;;5066881;28;20131;-61
2021/09/18 09:31:15;;;;;;;6.50;1.98;;;18.90;99.90;;;;;;5065423;28;20052;-61
2021/09/18 09:34:19;;;;;;;3.38;1.17;;;19.00;99.90;;;;;;5064016;28;20456;-62
2021/09/18 09:36:51;;;;;;;3.50;2.25;;;19.00;99.90;;;;;;5059535;28;20143;-61
2021/09/18 09:39:20;;;;;;;6.80;3.10;;;19.00;99.90;;;;;;5059689;28;20053;-56
2021/09/18 09:41:52;;;;;;;6.03;2.55;;;19.00;99.90;;;;;;5059107;28;20053;-57
2021/09/18 09:44:19;;;;;;;5.80;4.38;;;19.10;99.90;;;;;;5059256;28;20052;-57
2021/09/18 09:47:14;;;;;;;14.00;11.65;;;19.20;99.90;;;;;;5060240;28;20075;-55
2021/09/18 09:49:57;;;;;;;36.08;26.42;;;19.20;99.90;;;;;;5059951;28;20048;-56
2021/09/18 09:52:34;;;;;;;4.13;0.95;;;19.20;99.90;;;;;;5060761;28;20075;-51
2021/09/18 09:55:12;;;;;;;79.10;9.50;;;19.30;99.90;;;;;;5054275;28;20061;-53
2021/09/18 09:57:43;;;;;;;6.72;3.47;;;19.40;99.90;;;;;;5059060;28;20048;-57
2021/09/18 10:00:12;;;;;;;7.65;5.50;;;19.70;99.90;;;;;;5050560;28;20056;-56
2021/09/18 10:02:42;;;;;;;6.95;5.38;;;19.60;99.90;;;;;;5055840;28;20072;-57
2021/09/18 10:05:14;;;;;;;11.88;9.77;;;19.90;99.90;;;;;;5059746;28;20048;-59
2021/09/18 10:07:41;;;;;;;3.50;0.90;;;19.90;99.90;;;;;;5055497;28;20131;-58
2021/09/18 10:10:10;;;;;;;5.43;1.90;;;20.10;99.90;;;;;;5060366;28;20045;-59
2021/09/18 10:12:40;;;;;;;2.15;0.98;;;20.20;99.90;;;;;;5052603;28;20065;-59
2021/09/18 10:15:08;;;;;;;2.85;1.17;;;20.20;99.90;;;;;;5053213;28;20056;-59
2021/09/18 10:17:43;;;;;;;3.28;1.00;;;20.30;99.90;;;;;;5065204;28;20492;-59
2021/09/18 10:23:13;;;;;;;3.22;1.45;;;20.50;99.90;;;;;;5057203;28;20545;-59
2021/09/18 10:23:14;;;;;;;2.38;1.33;;;20.50;99.90;;;;;;5062769;28;20063;-59
2021/09/18 10:25:51;;;;;;;2.35;1.55;;;20.40;99.90;;;;;;5056971;28;20083;-58
2021/09/18 10:28:41;;;;;;;4.13;1.27;;;20.20;99.90;;;;;;5059571;28;20044;-60
2021/09/18 10:31:16;;;;;;;3.30;1.23;;;20.20;99.90;;;;;;5056478;28;20493;-59
2021/09/18 10:33:49;;;;;;;4.15;1.70;;;20.20;99.90;;;;;;5057083;28;20365;-59
2021/09/18 10:36:40;;;;;;;3.03;1.58;;;20.60;99.90;;;;;;5050637;28;20102;-59
2021/09/18 10:39:11;;;;;;;4.43;1.85;;;20.70;99.90;;;;;;5057168;28;20059;-59
2021/09/18 10:41:48;;;;;;;5.85;2.15;;;21.20;99.90;;;;;;5053770;28;20052;-58
2021/09/18 10:44:17;;;;;;;5.78;2.63;;;21.40;99.90;;;;;;5058134;28;20052;-59
2021/09/18 10:46:44;;;;;;;5.93;4.15;;;21.90;99.90;;;;;;5056721;28;20091;-60
2021/09/18 10:49:37;;;;;;;5.88;3.75;;;22.10;99.90;;;;;;5131893;27;1319844;-59
2021/09/18 10:52:25;;;;;;;4.93;3.25;;;22.40;99.60;;;;;;5165103;27;20039;-58
2021/09/18 10:55:08;;;;;;;6.63;3.08;;;23.00;93.70;;;;;;5162392;27;20042;-58
2021/09/18 10:57:48;;;;;;;10.82;8.68;;;24.10;90.80;;;;;;5166001;27;20103;-58
2021/09/18 11:00:23;;;;;;;7.32;6.38;;;24.80;76.00;;;;;;5164436;27;20046;-58
2021/09/18 11:02:54;;;;;;;10.68;8.38;;;24.80;69.70;;;;;;5164799;27;20046;-58
2021/09/18 11:05:23;;;;;;;9.63;7.63;;;25.40;67.60;;;;;;5164497;27;20085;-58
2021/09/18 11:07:50;;;;;;;9.65;7.85;;;26.00;65.40;;;;;;5165191;27;20046;-58
2021/09/18 11:10:36;;;;;;;8.68;7.72;;;26.20;66.30;;;;;;5144831;27;20093;-60
2021/09/18 11:13:09;;;;;;;13.18;11.68;;;26.30;59.10;;;;;;5161640;27;20130;-60
2021/09/18 11:16:05;;;;;;;9.23;8.23;;;27.10;58.90;;;;;;5165421;27;20050;-60
2021/09/18 11:18:59;;;;;;;18.67;16.88;;;27.30;59.80;;;;;;5077028;28;20048;-60
2021/09/18 11:21:27;;;;;;;8.43;7.03;;;27.40;55.80;;;;;;5071052;28;20648;-59
2021/09/18 11:24:01;;;;;;;9.45;7.93;;;27.80;58.40;;;;;;5075625;28;20066;-60
2021/09/18 11:26:32;;;;;;;10.50;9.40;;;28.40;56.00;;;;;;5072260;28;20132;-60
2021/09/18 11:29:19;;;;;;;14.02;12.57;;;28.20;57.00;;;;;;5072219;28;20250;-61
2021/09/18 11:32:05;;;;;;;26.65;24.25;;;28.20;54.20;;;;;;5073113;28;20098;-61
2021/09/18 11:34:54;;;;;;;7.78;5.95;;;27.80;53.20;;;;;;5068835;28;20632;-60
2021/09/18 11:37:20;;;;;;;20.13;18.08;;;28.20;54.70;;;;;;5072412;28;20627;-61
2021/09/18 11:39:58;;;;;;;13.80;12.43;;;28.50;55.10;;;;;;5078071;28;20056;-60
2021/09/18 11:42:32;;;;;;;7.88;6.30;;;28.60;52.90;;;;;;5080117;28;20830;-61
2021/09/18 11:45:03;;;;;;;38.60;35.13;;;28.60;52.90;;;;;;5074542;28;20642;-61
2021/09/18 11:47:33;;;;;;;16.25;14.63;;;28.90;52.60;;;;;;5071767;28;20512;-60
2021/09/18 11:49:59;;;;;;;13.88;11.52;;;29.20;52.70;;;;;;5056817;28;20053;-62
2021/09/18 11:52:34;;;;;;;13.40;12.05;;;29.40;52.10;;;;;;5076268;28;20129;-61
2021/09/18 11:55:00;;;;;;;6.95;5.00;;;29.90;49.70;;;;;;5083031;27;20054;-59
2021/09/18 11:57:26;;;;;;;6.30;4.15;;;29.70;52.10;;;;;;5141929;27;20058;-61
2021/09/18 11:59:52;;;;;;;7.95;6.07;;;30.00;51.10;;;;;;5152774;27;20510;-60
2021/09/18 12:02:32;;;;;;;9.65;8.40;;;29.80;50.50;;;;;;5150126;27;20836;-63
2021/09/18 12:04:58;;;;;;;10.57;9.40;;;29.60;48.20;;;;;;5150703;27;20050;-56
2021/09/18 12:07:24;;;;;;;45.10;41.17;;;29.40;49.30;;;;;;5131761;27;20042;-51
2021/09/18 12:09:51;;;;;;;48.55;44.38;;;29.50;49.30;;;;;;5148786;27;20134;-50
2021/09/18 12:12:29;;;;;;;10.93;9.88;;;29.10;49.40;;;;;;5128061;27;20129;-54
2021/09/18 12:14:56;;;;;;;7.97;7.15;;;29.20;48.30;;;;;;5142974;27;20056;-50
2021/09/18 12:17:23;;;;;;;21.02;19.15;;;29.10;50.00;;;;;;5146938;27;20047;-54
2021/09/18 12:19:50;;;;;;;7.90;6.25;;;29.30;50.60;;;;;;5127951;27;20046;-52
2021/09/18 12:22:20;;;;;;;12.88;11.02;;;29.30;49.50;;;;;;5147490;27;20054;-52
2021/09/18 12:24:50;;;;;;;15.93;14.32;;;29.80;47.20;;;;;;5147970;27;20042;-48
2021/09/18 12:27:30;;;;;;;15.73;14.10;;;29.10;48.30;;;;;;5145283;27;20066;-51
2021/09/18 12:30:07;;;;;;;11.07;9.90;;;28.10;48.90;;;;;;5148544;27;20057;-53
2021/09/18 12:32:34;;;;;;;7.03;3.78;;;27.20;51.50;;;;;;5143622;27;20054;-50
2021/09/18 12:35:08;;;;;;;4.28;3.25;;;27.10;51.70;;;;;;5130063;27;20436;-59
2021/09/18 12:37:40;;;;;;;7.72;5.20;;;27.70;52.50;;;;;;5149002;27;20096;-59
2021/09/18 12:40:19;;;;;;;10.00;5.00;;;27.90;51.10;;;;;;5149447;27;20050;-58
2021/09/18 12:43:06;;;;;;;7.07;4.10;;;27.40;51.80;;;;;;5147557;27;20047;-58
2021/09/18 12:45:35;;;;;;;5.05;2.72;;;26.90;52.30;;;;;;5126916;27;20054;-58
2021/09/18 12:48:14;;;;;;;16.27;12.73;;;27.60;52.00;;;;;;5146394;27;20695;-58
2021/09/18 12:50:56;;;;;;;10.25;8.13;;;28.60;50.00;;;;;;5149018;27;20554;-61
2021/09/18 12:53:26;;;;;;;24.75;22.45;;;28.80;48.80;;;;;;5145584;27;20611;-58
2021/09/18 12:56:12;;;;;;;7.93;6.47;;;28.00;49.20;;;;;;5145995;27;20046;-58